Terminal Aerodrome Forecast
Issued by NWS

Home | Current Version | Previous Version | Text Only | Print | Product List | Glossary On
Versions: 1 2 3 4 5 6 7 8 9 10 11 12 13 14 15 16 17 18 19 20 21 22
824
FTUS45 KPIH 230520
TAFSUN
TAF
KSUN 230520Z 2306/2412 32006KT P6SM FEW150
     FM231400 32006KT P6SM SCT080 BKN150
     FM231900 12008KT P6SM BKN060 BKN200
     FM240300 31006KT P6SM BKN040
     FM240800 25015KT P6SM VCSH BKN025 BKN040
      AMD LTD TO CLD VIS AND WIND TIL 231300=

USA.gov is the U.S. government's official web portal to all federal, state and local government web resources and services.